sensor_id;sensor_type;location;lat;lon;timestamp;P1;durP1;ratioP1;P2;durP2;ratioP2
75941;SDS011;64622;46.220;19.878;2023-12-20T00:01:11;83.57;;;30.62;;
75941;SDS011;64622;46.220;19.878;2023-12-20T00:03:38;72.70;;;30.07;;
75941;SDS011;64622;46.220;19.878;2023-12-20T00:06:05;80.45;;;30.70;;
75941;SDS011;64622;46.220;19.878;2023-12-20T00:08:31;107.90;;;36.28;;
75941;SDS011;64622;46.220;19.878;2023-12-20T00:10:58;84.05;;;30.58;;
75941;SDS011;64622;46.220;19.878;2023-12-20T00:13:25;81.47;;;29.30;;
75941;SDS011;64622;46.220;19.878;2023-12-20T00:15:52;82.70;;;30.27;;
75941;SDS011;64622;46.220;19.878;2023-12-20T00:18:19;85.25;;;29.85;;
75941;SDS011;64622;46.220;19.878;2023-12-20T00:20:46;77.95;;;30.83;;
75941;SDS011;64622;46.220;19.878;2023-12-20T00:23:13;88.75;;;34.28;;
75941;SDS011;64622;46.220;19.878;2023-12-20T00:25:40;70.95;;;28.98;;
75941;SDS011;64622;46.220;19.878;2023-12-20T00:28:07;81.93;;;29.97;;
75941;SDS011;64622;46.220;19.878;2023-12-20T00:30:34;79.72;;;29.80;;
75941;SDS011;64622;46.220;19.878;2023-12-20T00:33:01;76.40;;;29.77;;
75941;SDS011;64622;46.220;19.878;2023-12-20T00:35:28;81.03;;;30.67;;
75941;SDS011;64622;46.220;19.878;2023-12-20T00:37:55;74.80;;;27.90;;
75941;SDS011;64622;46.220;19.878;2023-12-20T00:40:22;72.70;;;27.50;;
75941;SDS011;64622;46.220;19.878;2023-12-20T00:42:49;64.40;;;26.85;;
75941;SDS011;64622;46.220;19.878;2023-12-20T00:45:16;111.03;;;36.05;;
75941;SDS011;64622;46.220;19.878;2023-12-20T00:47:44;97.72;;;29.12;;
75941;SDS011;64622;46.220;19.878;2023-12-20T00:50:11;79.85;;;26.77;;
75941;SDS011;64622;46.220;19.878;2023-12-20T00:52:38;74.53;;;31.47;;
75941;SDS011;64622;46.220;19.878;2023-12-20T00:55:05;100.55;;;32.50;;
75941;SDS011;64622;46.220;19.878;2023-12-20T00:57:32;96.55;;;32.22;;
75941;SDS011;64622;46.220;19.878;2023-12-20T01:05:20;73.10;;;29.57;;
75941;SDS011;64622;46.220;19.878;2023-12-20T01:07:49;68.50;;;27.80;;
75941;SDS011;64622;46.220;19.878;2023-12-20T01:10:16;68.90;;;28.60;;
75941;SDS011;64622;46.220;19.878;2023-12-20T01:12:43;68.45;;;26.33;;
75941;SDS011;64622;46.220;19.878;2023-12-20T01:15:10;82.43;;;28.45;;
75941;SDS011;64622;46.220;19.878;2023-12-20T01:17:37;83.13;;;28.97;;
75941;SDS011;64622;46.220;19.878;2023-12-20T01:20:04;91.75;;;29.55;;
75941;SDS011;64622;46.220;19.878;2023-12-20T01:22:31;99.47;;;32.42;;
75941;SDS011;64622;46.220;19.878;2023-12-20T01:24:58;72.47;;;27.55;;
75941;SDS011;64622;46.220;19.878;2023-12-20T01:27:24;77.95;;;28.50;;
75941;SDS011;64622;46.220;19.878;2023-12-20T01:29:51;56.17;;;25.93;;
75941;SDS011;64622;46.220;19.878;2023-12-20T01:32:18;65.28;;;26.35;;
75941;SDS011;64622;46.220;19.878;2023-12-20T01:34:44;70.93;;;28.10;;
75941;SDS011;64622;46.220;19.878;2023-12-20T01:37:11;68.93;;;29.15;;
75941;SDS011;64622;46.220;19.878;2023-12-20T01:39:38;60.58;;;25.17;;
75941;SDS011;64622;46.220;19.878;2023-12-20T01:42:04;75.50;;;28.80;;
75941;SDS011;64622;46.220;19.878;2023-12-20T01:44:32;66.78;;;25.15;;
75941;SDS011;64622;46.220;19.878;2023-12-20T01:49:39;61.20;;;26.37;;
75941;SDS011;64622;46.220;19.878;2023-12-20T01:52:06;71.85;;;28.02;;
75941;SDS011;64622;46.220;19.878;2023-12-20T01:54:34;63.43;;;24.30;;
75941;SDS011;64622;46.220;19.878;2023-12-20T01:59:43;47.72;;;23.50;;
75941;SDS011;64622;46.220;19.878;2023-12-20T02:02:10;66.57;;;26.60;;
75941;SDS011;64622;46.220;19.878;2023-12-20T02:04:39;66.72;;;27.67;;
75941;SDS011;64622;46.220;19.878;2023-12-20T02:07:06;69.50;;;24.97;;
75941;SDS011;64622;46.220;19.878;2023-12-20T02:09:33;84.03;;;31.52;;
75941;SDS011;64622;46.220;19.878;2023-12-20T02:12:00;58.10;;;24.98;;
75941;SDS011;64622;46.220;19.878;2023-12-20T02:14:27;78.00;;;29.27;;
75941;SDS011;64622;46.220;19.878;2023-12-20T02:16:54;60.72;;;26.35;;
75941;SDS011;64622;46.220;19.878;2023-12-20T02:19:20;62.47;;;26.60;;
75941;SDS011;64622;46.220;19.878;2023-12-20T02:24:27;64.65;;;27.33;;
75941;SDS011;64622;46.220;19.878;2023-12-20T02:26:54;62.53;;;25.77;;
75941;SDS011;64622;46.220;19.878;2023-12-20T02:29:20;61.60;;;27.98;;
75941;SDS011;64622;46.220;19.878;2023-12-20T02:31:46;58.57;;;24.80;;
75941;SDS011;64622;46.220;19.878;2023-12-20T02:34:13;61.60;;;24.65;;
75941;SDS011;64622;46.220;19.878;2023-12-20T02:36:40;65.28;;;27.17;;
75941;SDS011;64622;46.220;19.878;2023-12-20T02:39:06;58.83;;;25.23;;
75941;SDS011;64622;46.220;19.878;2023-12-20T02:44:12;58.47;;;24.40;;
75941;SDS011;64622;46.220;19.878;2023-12-20T02:46:39;62.50;;;26.08;;
75941;SDS011;64622;46.220;19.878;2023-12-20T02:49:06;69.60;;;24.77;;
75941;SDS011;64622;46.220;19.878;2023-12-20T02:51:33;66.75;;;26.83;;
75941;SDS011;64622;46.220;19.878;2023-12-20T02:59:20;63.87;;;27.00;;
75941;SDS011;64622;46.220;19.878;2023-12-20T03:01:47;77.35;;;33.83;;
75941;SDS011;64622;46.220;19.878;2023-12-20T03:04:13;85.22;;;31.95;;
75941;SDS011;64622;46.220;19.878;2023-12-20T03:06:40;96.55;;;42.33;;
75941;SDS011;64622;46.220;19.878;2023-12-20T03:09:07;87.43;;;34.90;;
75941;SDS011;64622;46.220;19.878;2023-12-20T03:11:34;92.45;;;34.45;;
75941;SDS011;64622;46.220;19.878;2023-12-20T03:14:00;83.50;;;35.38;;
75941;SDS011;64622;46.220;19.878;2023-12-20T03:16:27;70.35;;;31.48;;
75941;SDS011;64622;46.220;19.878;2023-12-20T03:21:33;76.33;;;28.20;;
75941;SDS011;64622;46.220;19.878;2023-12-20T03:24:00;63.05;;;28.30;;
75941;SDS011;64622;46.220;19.878;2023-12-20T03:26:27;91.20;;;31.15;;
75941;SDS011;64622;46.220;19.878;2023-12-20T03:31:32;66.82;;;28.05;;
75941;SDS011;64622;46.220;19.878;2023-12-20T03:34:00;62.43;;;23.77;;
75941;SDS011;64622;46.220;19.878;2023-12-20T03:36:26;65.53;;;24.25;;
75941;SDS011;64622;46.220;19.878;2023-12-20T03:38:53;57.67;;;23.67;;
75941;SDS011;64622;46.220;19.878;2023-12-20T03:46:35;55.17;;;21.63;;
75941;SDS011;64622;46.220;19.878;2023-12-20T03:49:01;52.75;;;23.55;;
75941;SDS011;64622;46.220;19.878;2023-12-20T03:51:28;67.03;;;25.42;;
75941;SDS011;64622;46.220;19.878;2023-12-20T03:53:55;52.47;;;22.58;;
75941;SDS011;64622;46.220;19.878;2023-12-20T03:56:21;54.63;;;25.02;;
75941;SDS011;64622;46.220;19.878;2023-12-20T03:58:48;61.53;;;25.87;;
75941;SDS011;64622;46.220;19.878;2023-12-20T04:01:14;67.60;;;27.75;;
75941;SDS011;64622;46.220;19.878;2023-12-20T04:03:41;57.80;;;25.58;;
75941;SDS011;64622;46.220;19.878;2023-12-20T04:06:08;96.93;;;38.40;;
75941;SDS011;64622;46.220;19.878;2023-12-20T04:08:35;64.78;;;25.30;;
75941;SDS011;64622;46.220;19.878;2023-12-20T04:11:02;67.60;;;27.63;;
75941;SDS011;64622;46.220;19.878;2023-12-20T04:13:30;64.43;;;26.12;;
75941;SDS011;64622;46.220;19.878;2023-12-20T04:15:56;60.33;;;23.25;;
75941;SDS011;64622;46.220;19.878;2023-12-20T04:18:23;56.60;;;24.05;;
75941;SDS011;64622;46.220;19.878;2023-12-20T04:20:50;53.63;;;21.10;;
75941;SDS011;64622;46.220;19.878;2023-12-20T04:23:17;51.53;;;20.03;;
75941;SDS011;64622;46.220;19.878;2023-12-20T04:25:45;52.95;;;20.80;;
75941;SDS011;64622;46.220;19.878;2023-12-20T04:28:13;65.53;;;23.02;;
75941;SDS011;64622;46.220;19.878;2023-12-20T04:30:39;48.05;;;20.95;;
75941;SDS011;64622;46.220;19.878;2023-12-20T04:33:07;52.42;;;23.38;;
75941;SDS011;64622;46.220;19.878;2023-12-20T04:38:13;71.80;;;24.48;;
75941;SDS011;64622;46.220;19.878;2023-12-20T04:40:40;73.80;;;25.67;;
75941;SDS011;64622;46.220;19.878;2023-12-20T04:43:07;45.53;;;19.83;;
75941;SDS011;64622;46.220;19.878;2023-12-20T04:48:14;53.53;;;19.27;;
75941;SDS011;64622;46.220;19.878;2023-12-20T04:50:41;49.80;;;23.35;;
75941;SDS011;64622;46.220;19.878;2023-12-20T04:53:08;44.88;;;19.73;;
75941;SDS011;64622;46.220;19.878;2023-12-20T04:55:35;58.97;;;25.45;;
75941;SDS011;64622;46.220;19.878;2023-12-20T04:58:01;46.03;;;18.75;;
75941;SDS011;64622;46.220;19.878;2023-12-20T05:03:07;75.18;;;22.50;;
75941;SDS011;64622;46.220;19.878;2023-12-20T05:05:35;54.63;;;23.25;;
75941;SDS011;64622;46.220;19.878;2023-12-20T05:08:02;54.90;;;21.40;;
75941;SDS011;64622;46.220;19.878;2023-12-20T05:10:31;67.97;;;23.70;;
75941;SDS011;64622;46.220;19.878;2023-12-20T05:12:57;67.70;;;23.60;;
75941;SDS011;64622;46.220;19.878;2023-12-20T05:15:24;66.15;;;23.08;;
75941;SDS011;64622;46.220;19.878;2023-12-20T05:17:52;71.45;;;24.15;;
75941;SDS011;64622;46.220;19.878;2023-12-20T05:22:58;75.45;;;25.23;;
75941;SDS011;64622;46.220;19.878;2023-12-20T05:25:25;66.70;;;24.20;;
75941;SDS011;64622;46.220;19.878;2023-12-20T05:27:53;60.72;;;23.33;;
75941;SDS011;64622;46.220;19.878;2023-12-20T05:30:20;63.85;;;22.37;;
75941;SDS011;64622;46.220;19.878;2023-12-20T05:32:47;61.00;;;19.50;;
75941;SDS011;64622;46.220;19.878;2023-12-20T05:37:53;68.67;;;23.63;;
75941;SDS011;64622;46.220;19.878;2023-12-20T05:40:20;46.33;;;18.67;;
75941;SDS011;64622;46.220;19.878;2023-12-20T05:42:47;56.83;;;21.23;;
75941;SDS011;64622;46.220;19.878;2023-12-20T05:45:15;55.63;;;18.83;;
75941;SDS011;64622;46.220;19.878;2023-12-20T05:47:41;57.88;;;19.67;;
75941;SDS011;64622;46.220;19.878;2023-12-20T05:50:09;55.53;;;20.63;;
75941;SDS011;64622;46.220;19.878;2023-12-20T05:52:36;58.90;;;21.65;;
75941;SDS011;64622;46.220;19.878;2023-12-20T05:55:03;64.37;;;20.73;;
75941;SDS011;64622;46.220;19.878;2023-12-20T05:57:30;65.12;;;25.02;;
75941;SDS011;64622;46.220;19.878;2023-12-20T05:59:57;53.55;;;23.58;;
75941;SDS011;64622;46.220;19.878;2023-12-20T06:02:23;55.80;;;22.67;;
75941;SDS011;64622;46.220;19.878;2023-12-20T06:07:32;40.47;;;16.95;;
75941;SDS011;64622;46.220;19.878;2023-12-20T06:12:40;71.62;;;27.08;;
75941;SDS011;64622;46.220;19.878;2023-12-20T06:15:07;60.10;;;25.57;;
75941;SDS011;64622;46.220;19.878;2023-12-20T06:17:34;67.95;;;22.65;;
75941;SDS011;64622;46.220;19.878;2023-12-20T06:20:01;67.32;;;19.20;;
75941;SDS011;64622;46.220;19.878;2023-12-20T06:22:29;53.50;;;19.60;;
75941;SDS011;64622;46.220;19.878;2023-12-20T06:27:35;74.50;;;21.30;;
75941;SDS011;64622;46.220;19.878;2023-12-20T06:30:03;52.30;;;20.40;;
75941;SDS011;64622;46.220;19.878;2023-12-20T06:32:30;68.05;;;26.45;;
75941;SDS011;64622;46.220;19.878;2023-12-20T06:34:57;71.37;;;21.30;;
75941;SDS011;64622;46.220;19.878;2023-12-20T06:37:24;73.07;;;23.62;;
75941;SDS011;64622;46.220;19.878;2023-12-20T06:39:51;60.83;;;24.17;;
75941;SDS011;64622;46.220;19.878;2023-12-20T06:42:18;78.53;;;25.83;;
75941;SDS011;64622;46.220;19.878;2023-12-20T06:44:45;66.18;;;22.60;;
75941;SDS011;64622;46.220;19.878;2023-12-20T06:47:11;65.07;;;21.87;;
75941;SDS011;64622;46.220;19.878;2023-12-20T06:49:40;68.43;;;21.87;;
75941;SDS011;64622;46.220;19.878;2023-12-20T06:54:47;69.05;;;24.45;;
75941;SDS011;64622;46.220;19.878;2023-12-20T06:57:14;82.50;;;27.25;;
75941;SDS011;64622;46.220;19.878;2023-12-20T07:02:21;86.47;;;25.27;;
75941;SDS011;64622;46.220;19.878;2023-12-20T07:04:48;73.37;;;26.10;;
75941;SDS011;64622;46.220;19.878;2023-12-20T07:07:15;92.25;;;29.55;;
75941;SDS011;64622;46.220;19.878;2023-12-20T07:09:42;48.28;;;20.77;;
75941;SDS011;64622;46.220;19.878;2023-12-20T07:12:09;46.88;;;17.37;;
75941;SDS011;64622;46.220;19.878;2023-12-20T07:14:35;64.05;;;23.05;;
75941;SDS011;64622;46.220;19.878;2023-12-20T07:17:03;56.27;;;21.70;;
75941;SDS011;64622;46.220;19.878;2023-12-20T07:19:29;78.75;;;26.62;;
75941;SDS011;64622;46.220;19.878;2023-12-20T07:21:55;62.10;;;24.20;;
75941;SDS011;64622;46.220;19.878;2023-12-20T07:24:23;86.50;;;25.65;;
75941;SDS011;64622;46.220;19.878;2023-12-20T07:26:49;66.55;;;23.55;;
75941;SDS011;64622;46.220;19.878;2023-12-20T07:29:17;57.33;;;23.30;;
75941;SDS011;64622;46.220;19.878;2023-12-20T07:31:44;57.20;;;22.80;;
75941;SDS011;64622;46.220;19.878;2023-12-20T07:34:11;91.43;;;36.60;;
75941;SDS011;64622;46.220;19.878;2023-12-20T07:36:37;61.92;;;25.02;;
75941;SDS011;64622;46.220;19.878;2023-12-20T07:39:05;63.25;;;18.95;;
75941;SDS011;64622;46.220;19.878;2023-12-20T07:41:32;64.73;;;20.60;;
75941;SDS011;64622;46.220;19.878;2023-12-20T07:46:38;53.58;;;21.65;;
75941;SDS011;64622;46.220;19.878;2023-12-20T07:49:05;65.32;;;22.23;;
75941;SDS011;64622;46.220;19.878;2023-12-20T07:54:11;70.17;;;21.53;;
75941;SDS011;64622;46.220;19.878;2023-12-20T07:56:38;83.53;;;24.10;;
75941;SDS011;64622;46.220;19.878;2023-12-20T07:59:06;56.45;;;20.48;;
75941;SDS011;64622;46.220;19.878;2023-12-20T08:01:33;59.63;;;22.20;;
75941;SDS011;64622;46.220;19.878;2023-12-20T08:06:39;62.47;;;23.23;;
75941;SDS011;64622;46.220;19.878;2023-12-20T08:09:06;76.00;;;22.13;;
75941;SDS011;64622;46.220;19.878;2023-12-20T08:14:14;71.62;;;21.50;;
75941;SDS011;64622;46.220;19.878;2023-12-20T08:16:41;83.50;;;25.85;;
75941;SDS011;64622;46.220;19.878;2023-12-20T08:19:08;71.10;;;24.63;;
75941;SDS011;64622;46.220;19.878;2023-12-20T08:21:37;72.47;;;21.75;;
75941;SDS011;64622;46.220;19.878;2023-12-20T08:24:03;62.75;;;23.25;;
75941;SDS011;64622;46.220;19.878;2023-12-20T08:26:30;54.22;;;22.62;;
75941;SDS011;64622;46.220;19.878;2023-12-20T08:31:40;58.00;;;22.47;;
75941;SDS011;64622;46.220;19.878;2023-12-20T08:34:07;58.70;;;20.35;;
75941;SDS011;64622;46.220;19.878;2023-12-20T08:39:14;118.35;;;35.60;;
75941;SDS011;64622;46.220;19.878;2023-12-20T08:41:41;144.18;;;40.63;;
75941;SDS011;64622;46.220;19.878;2023-12-20T08:44:08;173.70;;;56.03;;
75941;SDS011;64622;46.220;19.878;2023-12-20T08:46:35;97.45;;;33.15;;
75941;SDS011;64622;46.220;19.878;2023-12-20T08:51:42;183.18;;;51.47;;
75941;SDS011;64622;46.220;19.878;2023-12-20T08:54:09;104.43;;;32.45;;
75941;SDS011;64622;46.220;19.878;2023-12-20T08:59:15;76.35;;;28.05;;
75941;SDS011;64622;46.220;19.878;2023-12-20T09:01:42;114.95;;;39.88;;
75941;SDS011;64622;46.220;19.878;2023-12-20T09:04:09;68.78;;;24.30;;
75941;SDS011;64622;46.220;19.878;2023-12-20T09:09:15;71.07;;;23.70;;
75941;SDS011;64622;46.220;19.878;2023-12-20T09:11:42;49.13;;;20.60;;
75941;SDS011;64622;46.220;19.878;2023-12-20T09:14:09;59.60;;;20.62;;
75941;SDS011;64622;46.220;19.878;2023-12-20T09:16:35;55.17;;;16.33;;
75941;SDS011;64622;46.220;19.878;2023-12-20T09:19:02;57.05;;;20.67;;
75941;SDS011;64622;46.220;19.878;2023-12-20T09:21:29;50.13;;;19.03;;
75941;SDS011;64622;46.220;19.878;2023-12-20T09:23:57;54.00;;;19.62;;
75941;SDS011;64622;46.220;19.878;2023-12-20T09:26:23;63.28;;;20.37;;
75941;SDS011;64622;46.220;19.878;2023-12-20T09:28:50;59.47;;;20.17;;
75941;SDS011;64622;46.220;19.878;2023-12-20T09:31:17;96.00;;;20.90;;
75941;SDS011;64622;46.220;19.878;2023-12-20T09:33:43;61.87;;;19.87;;
75941;SDS011;64622;46.220;19.878;2023-12-20T09:36:10;66.30;;;19.55;;
75941;SDS011;64622;46.220;19.878;2023-12-20T09:38:36;78.53;;;30.50;;
75941;SDS011;64622;46.220;19.878;2023-12-20T09:41:03;90.15;;;34.78;;
75941;SDS011;64622;46.220;19.878;2023-12-20T09:43:30;120.32;;;47.78;;
75941;SDS011;64622;46.220;19.878;2023-12-20T09:45:59;42.73;;;19.33;;
75941;SDS011;64622;46.220;19.878;2023-12-20T09:48:28;42.92;;;16.65;;
75941;SDS011;64622;46.220;19.878;2023-12-20T09:50:57;84.68;;;32.08;;
75941;SDS011;64622;46.220;19.878;2023-12-20T09:53:24;41.75;;;19.02;;
75941;SDS011;64622;46.220;19.878;2023-12-20T09:55:58;46.33;;;17.87;;
75941;SDS011;64622;46.220;19.878;2023-12-20T09:58:26;28.47;;;14.03;;
75941;SDS011;64622;46.220;19.878;2023-12-20T10:00:53;39.22;;;14.25;;
75941;SDS011;64622;46.220;19.878;2023-12-20T10:06:00;68.53;;;30.12;;
75941;SDS011;64622;46.220;19.878;2023-12-20T10:11:06;71.87;;;34.20;;
75941;SDS011;64622;46.220;19.878;2023-12-20T10:13:34;33.65;;;16.50;;
75941;SDS011;64622;46.220;19.878;2023-12-20T10:16:06;37.25;;;18.45;;
75941;SDS011;64622;46.220;19.878;2023-12-20T10:18:36;39.85;;;16.37;;
75941;SDS011;64622;46.220;19.878;2023-12-20T10:21:03;64.37;;;18.80;;
75941;SDS011;64622;46.220;19.878;2023-12-20T10:26:10;73.40;;;32.40;;
75941;SDS011;64622;46.220;19.878;2023-12-20T10:28:38;51.03;;;19.35;;
75941;SDS011;64622;46.220;19.878;2023-12-20T10:31:04;33.13;;;15.55;;
75941;SDS011;64622;46.220;19.878;2023-12-20T10:33:32;32.58;;;14.48;;
75941;SDS011;64622;46.220;19.878;2023-12-20T10:35:59;35.20;;;14.50;;
75941;SDS011;64622;46.220;19.878;2023-12-20T10:38:26;29.92;;;12.82;;
75941;SDS011;64622;46.220;19.878;2023-12-20T10:40:54;45.63;;;14.77;;
75941;SDS011;64622;46.220;19.878;2023-12-20T10:43:26;44.95;;;18.15;;
75941;SDS011;64622;46.220;19.878;2023-12-20T10:45:55;50.92;;;20.95;;
75941;SDS011;64622;46.220;19.878;2023-12-20T10:48:23;29.37;;;12.63;;
75941;SDS011;64622;46.220;19.878;2023-12-20T10:50:55;44.88;;;16.87;;
75941;SDS011;64622;46.220;19.878;2023-12-20T10:53:24;41.67;;;16.80;;
75941;SDS011;64622;46.220;19.878;2023-12-20T10:55:52;36.63;;;14.75;;
75941;SDS011;64622;46.220;19.878;2023-12-20T10:58:21;35.70;;;14.75;;
75941;SDS011;64622;46.220;19.878;2023-12-20T11:00:50;36.47;;;14.00;;
75941;SDS011;64622;46.220;19.878;2023-12-20T11:03:25;31.92;;;15.35;;
75941;SDS011;64622;46.220;19.878;2023-12-20T11:06:00;48.42;;;17.30;;
75941;SDS011;64622;46.220;19.878;2023-12-20T11:11:26;51.33;;;23.02;;
75941;SDS011;64622;46.220;19.878;2023-12-20T11:14:12;61.43;;;19.03;;
75941;SDS011;64622;46.220;19.878;2023-12-20T11:16:43;44.92;;;18.25;;
75941;SDS011;64622;46.220;19.878;2023-12-20T11:19:11;61.92;;;27.92;;
75941;SDS011;64622;46.220;19.878;2023-12-20T11:21:40;48.53;;;19.83;;
75941;SDS011;64622;46.220;19.878;2023-12-20T11:26:48;55.83;;;21.10;;
75941;SDS011;64622;46.220;19.878;2023-12-20T11:32:27;40.20;;;19.85;;
75941;SDS011;64622;46.220;19.878;2023-12-20T11:37:32;49.78;;;20.35;;
75941;SDS011;64622;46.220;19.878;2023-12-20T11:42:43;63.47;;;22.25;;
75941;SDS011;64622;46.220;19.878;2023-12-20T11:45:13;53.28;;;22.25;;
75941;SDS011;64622;46.220;19.878;2023-12-20T11:47:45;54.05;;;21.62;;
75941;SDS011;64622;46.220;19.878;2023-12-20T11:50:14;51.70;;;22.77;;
75941;SDS011;64622;46.220;19.878;2023-12-20T11:57:55;49.15;;;18.85;;
75941;SDS011;64622;46.220;19.878;2023-12-20T12:00:22;63.95;;;23.90;;
75941;SDS011;64622;46.220;19.878;2023-12-20T12:02:57;44.35;;;18.23;;
75941;SDS011;64622;46.220;19.878;2023-12-20T12:05:24;40.73;;;18.10;;
75941;SDS011;64622;46.220;19.878;2023-12-20T12:07:52;50.47;;;18.77;;
75941;SDS011;64622;46.220;19.878;2023-12-20T12:12:59;46.83;;;19.65;;
75941;SDS011;64622;46.220;19.878;2023-12-20T12:15:26;51.47;;;20.48;;
75941;SDS011;64622;46.220;19.878;2023-12-20T12:17:54;54.70;;;20.07;;
75941;SDS011;64622;46.220;19.878;2023-12-20T12:20:22;54.13;;;25.55;;
75941;SDS011;64622;46.220;19.878;2023-12-20T12:25:26;66.32;;;30.70;;
75941;SDS011;64622;46.220;19.878;2023-12-20T12:27:53;47.10;;;23.73;;
75941;SDS011;64622;46.220;19.878;2023-12-20T12:30:20;57.80;;;28.10;;
75941;SDS011;64622;46.220;19.878;2023-12-20T12:32:47;48.35;;;22.62;;
75941;SDS011;64622;46.220;19.878;2023-12-20T12:35:14;47.92;;;19.58;;
75941;SDS011;64622;46.220;19.878;2023-12-20T12:37:41;37.30;;;15.52;;
75941;SDS011;64622;46.220;19.878;2023-12-20T12:40:13;45.67;;;17.42;;
75941;SDS011;64622;46.220;19.878;2023-12-20T12:42:41;44.60;;;17.87;;
75941;SDS011;64622;46.220;19.878;2023-12-20T12:45:11;42.67;;;18.08;;
75941;SDS011;64622;46.220;19.878;2023-12-20T12:47:38;62.28;;;22.08;;
75941;SDS011;64622;46.220;19.878;2023-12-20T12:50:06;43.60;;;18.75;;
75941;SDS011;64622;46.220;19.878;2023-12-20T12:55:13;40.33;;;15.93;;
75941;SDS011;64622;46.220;19.878;2023-12-20T12:57:40;40.50;;;16.30;;
75941;SDS011;64622;46.220;19.878;2023-12-20T13:00:09;42.72;;;17.25;;
75941;SDS011;64622;46.220;19.878;2023-12-20T13:02:38;45.22;;;19.25;;
75941;SDS011;64622;46.220;19.878;2023-12-20T13:05:08;53.85;;;21.00;;
75941;SDS011;64622;46.220;19.878;2023-12-20T13:07:35;45.63;;;20.93;;
75941;SDS011;64622;46.220;19.878;2023-12-20T13:10:04;48.92;;;20.50;;
75941;SDS011;64622;46.220;19.878;2023-12-20T13:12:32;45.55;;;20.12;;
75941;SDS011;64622;46.220;19.878;2023-12-20T13:14:59;52.38;;;21.95;;
75941;SDS011;64622;46.220;19.878;2023-12-20T13:17:26;47.90;;;18.65;;
75941;SDS011;64622;46.220;19.878;2023-12-20T13:19:53;40.60;;;18.90;;
75941;SDS011;64622;46.220;19.878;2023-12-20T13:24:58;44.45;;;19.55;;
75941;SDS011;64622;46.220;19.878;2023-12-20T13:27:25;46.60;;;19.83;;
75941;SDS011;64622;46.220;19.878;2023-12-20T13:32:33;47.67;;;20.87;;
75941;SDS011;64622;46.220;19.878;2023-12-20T13:37:41;41.83;;;18.33;;
75941;SDS011;64622;46.220;19.878;2023-12-20T13:40:08;46.67;;;20.20;;
75941;SDS011;64622;46.220;19.878;2023-12-20T13:42:35;47.00;;;21.83;;
75941;SDS011;64622;46.220;19.878;2023-12-20T13:45:02;48.20;;;20.03;;
75941;SDS011;64622;46.220;19.878;2023-12-20T13:50:11;43.78;;;18.50;;
75941;SDS011;64622;46.220;19.878;2023-12-20T13:52:38;44.00;;;19.30;;
75941;SDS011;64622;46.220;19.878;2023-12-20T13:55:05;49.33;;;20.45;;
75941;SDS011;64622;46.220;19.878;2023-12-20T13:57:34;47.30;;;22.30;;
75941;SDS011;64622;46.220;19.878;2023-12-20T14:00:04;56.08;;;24.63;;
75941;SDS011;64622;46.220;19.878;2023-12-20T14:02:33;84.15;;;30.67;;
75941;SDS011;64622;46.220;19.878;2023-12-20T14:05:00;75.35;;;32.25;;
75941;SDS011;64622;46.220;19.878;2023-12-20T14:07:28;47.53;;;20.83;;
75941;SDS011;64622;46.220;19.878;2023-12-20T14:09:55;43.57;;;19.40;;
75941;SDS011;64622;46.220;19.878;2023-12-20T14:12:23;55.15;;;24.67;;
75941;SDS011;64622;46.220;19.878;2023-12-20T14:14:50;43.00;;;19.30;;
75941;SDS011;64622;46.220;19.878;2023-12-20T14:17:17;44.85;;;17.52;;
75941;SDS011;64622;46.220;19.878;2023-12-20T14:19:44;39.42;;;16.83;;
75941;SDS011;64622;46.220;19.878;2023-12-20T14:22:10;52.63;;;22.97;;
75941;SDS011;64622;46.220;19.878;2023-12-20T14:24:37;42.85;;;18.08;;
75941;SDS011;64622;46.220;19.878;2023-12-20T14:27:05;43.28;;;20.00;;
75941;SDS011;64622;46.220;19.878;2023-12-20T14:29:31;33.75;;;15.48;;
75941;SDS011;64622;46.220;19.878;2023-12-20T14:31:58;41.15;;;17.05;;
75941;SDS011;64622;46.220;19.878;2023-12-20T14:34:25;37.67;;;16.53;;
75941;SDS011;64622;46.220;19.878;2023-12-20T14:36:51;35.95;;;17.27;;
75941;SDS011;64622;46.220;19.878;2023-12-20T14:41:59;49.08;;;19.17;;
75941;SDS011;64622;46.220;19.878;2023-12-20T14:47:05;39.07;;;19.17;;
75941;SDS011;64622;46.220;19.878;2023-12-20T14:49:32;45.33;;;18.62;;
75941;SDS011;64622;46.220;19.878;2023-12-20T14:51:58;39.35;;;16.87;;
75941;SDS011;64622;46.220;19.878;2023-12-20T14:54:26;39.35;;;17.25;;
75941;SDS011;64622;46.220;19.878;2023-12-20T14:56:52;48.22;;;17.62;;
75941;SDS011;64622;46.220;19.878;2023-12-20T14:59:20;38.67;;;15.97;;
75941;SDS011;64622;46.220;19.878;2023-12-20T15:01:48;43.75;;;19.08;;
75941;SDS011;64622;46.220;19.878;2023-12-20T15:04:15;61.25;;;24.33;;
75941;SDS011;64622;46.220;19.878;2023-12-20T15:06:42;74.62;;;36.83;;
75941;SDS011;64622;46.220;19.878;2023-12-20T15:09:10;82.93;;;41.85;;
75941;SDS011;64622;46.220;19.878;2023-12-20T15:11:37;50.33;;;24.40;;
75941;SDS011;64622;46.220;19.878;2023-12-20T15:14:04;44.88;;;21.45;;
75941;SDS011;64622;46.220;19.878;2023-12-20T15:16:31;36.20;;;18.85;;
75941;SDS011;64622;46.220;19.878;2023-12-20T15:21:39;44.72;;;17.95;;
75941;SDS011;64622;46.220;19.878;2023-12-20T15:24:09;39.17;;;15.57;;
75941;SDS011;64622;46.220;19.878;2023-12-20T15:26:43;38.55;;;16.50;;
75941;SDS011;64622;46.220;19.878;2023-12-20T15:29:10;35.47;;;15.90;;
75941;SDS011;64622;46.220;19.878;2023-12-20T15:31:41;30.05;;;14.25;;
75941;SDS011;64622;46.220;19.878;2023-12-20T15:36:49;31.97;;;14.53;;
75941;SDS011;64622;46.220;19.878;2023-12-20T15:41:55;38.95;;;15.57;;
75941;SDS011;64622;46.220;19.878;2023-12-20T15:44:22;35.13;;;15.20;;
75941;SDS011;64622;46.220;19.878;2023-12-20T15:46:50;32.83;;;15.00;;
75941;SDS011;64622;46.220;19.878;2023-12-20T15:59:56;26.20;;;11.00;;
75941;SDS011;64622;46.220;19.878;2023-12-20T16:02:23;32.97;;;14.00;;
75941;SDS011;64622;46.220;19.878;2023-12-20T16:07:29;29.12;;;12.63;;
75941;SDS011;64622;46.220;19.878;2023-12-20T16:09:57;25.92;;;11.73;;
75941;SDS011;64622;46.220;19.878;2023-12-20T16:12:23;24.45;;;10.13;;
75941;SDS011;64622;46.220;19.878;2023-12-20T16:14:50;29.03;;;12.30;;
75941;SDS011;64622;46.220;19.878;2023-12-20T16:17:17;27.87;;;10.80;;
75941;SDS011;64622;46.220;19.878;2023-12-20T16:19:43;24.48;;;9.65;;
75941;SDS011;64622;46.220;19.878;2023-12-20T16:22:10;23.15;;;10.73;;
75941;SDS011;64622;46.220;19.878;2023-12-20T16:27:18;29.80;;;12.10;;
75941;SDS011;64622;46.220;19.878;2023-12-20T16:29:45;44.03;;;19.75;;
75941;SDS011;64622;46.220;19.878;2023-12-20T16:32:12;54.85;;;27.17;;
75941;SDS011;64622;46.220;19.878;2023-12-20T16:34:38;38.88;;;17.98;;
75941;SDS011;64622;46.220;19.878;2023-12-20T16:37:06;35.72;;;15.95;;
75941;SDS011;64622;46.220;19.878;2023-12-20T16:39:32;31.50;;;14.70;;
75941;SDS011;64622;46.220;19.878;2023-12-20T16:41:59;36.50;;;15.50;;
75941;SDS011;64622;46.220;19.878;2023-12-20T16:47:06;31.20;;;14.68;;
75941;SDS011;64622;46.220;19.878;2023-12-20T16:49:33;27.20;;;12.82;;